Aviation Digital Data Service (ADDS)

Output produced by METARs form (1128 UTC 25 May 2015)
found at http://aviationweather.gov/adds/metars/
 
KERI 250539Z 2506/2606 17004KT P6SM SCT100 BKN200 
     FM250900 18012KT P6SM SCT120 BKN200 
     FM251400 20014G22KT P6SM BKN060 BKN150 
     FM252300 22016G24KT P6SM VCTS BKN050CB BKN150 
     FM260200 21012KT P6SM SCT060 BKN200